Time;durP1;ratioP1;P1;durP2;ratioP2;P2;SDS_P1;SDS_P2;PMS_P1;PMS_P2;Temp;Humidity;BMP_temperature;BMP_pressure;BME280_temperature;BME280_humidity;BME280_pressure;Samples;Min_cycle;Max_cycle;Signal;HPM_P1;HPM_P2
2022/04/06 00:01:24;;;;;;;;;;;9.20;99.90;;;;;;5037243;28;19917;-74
2022/04/06 00:03:49;;;;;;;;;;;9.20;99.90;;;;;;5038034;28;20476;-74
2022/04/06 00:06:15;;;;;;;;;;;9.20;99.90;;;;;;5037788;28;19923;-75
2022/04/06 00:08:41;;;;;;;;;;;9.20;99.90;;;;;;5038154;28;19923;-74
2022/04/06 00:11:06;;;;;;;;;;;9.20;99.90;;;;;;5037490;28;20301;-74
2022/04/06 00:13:32;;;;;;;;;;;9.20;99.90;;;;;;5035322;28;19952;-74
2022/04/06 00:15:57;;;;;;;;;;;9.10;99.90;;;;;;5037404;28;20433;-74
2022/04/06 00:18:22;;;;;;;;;;;9.20;99.90;;;;;;5037541;28;20437;-74
2022/04/06 00:20:49;;;;;;;;;;;9.10;99.90;;;;;;5037607;28;20389;-74
2022/04/06 00:23:15;;;;;;;;;;;9.10;99.90;;;;;;5037457;28;19913;-74
2022/04/06 00:25:41;;;;;;;;;;;9.10;99.90;;;;;;5037293;28;19913;-74
2022/04/06 00:28:06;;;;;;;;;;;9.10;99.90;;;;;;5037873;28;20271;-74
2022/04/06 00:30:31;;;;;;;;;;;9.10;99.90;;;;;;5036442;28;19960;-74
2022/04/06 00:32:57;;;;;;;;;;;9.10;99.90;;;;;;5038573;28;20491;-75
2022/04/06 00:35:28;;;;;;;;;;;9.10;99.90;;;;;;5037641;28;19917;-75
2022/04/06 00:37:54;;;;;;;;;;;9.10;99.90;;;;;;5042218;28;20376;-74
2022/04/06 00:40:22;;;;;;;;;;;9.10;99.90;;;;;;5041735;28;19913;-74
2022/04/06 00:42:48;;;;;;;;;;;9.20;99.90;;;;;;5041798;28;19917;-74
2022/04/06 00:45:13;;;;;;;;;;;9.20;99.90;;;;;;5039704;28;19928;-74
2022/04/06 00:47:39;;;;;;;;;;;9.20;99.90;;;;;;5042163;28;19959;-74
2022/04/06 00:50:05;;;;;;;;;;;9.20;99.90;;;;;;5041493;28;19917;-74
2022/04/06 00:52:30;;;;;;;;;;;9.20;99.90;;;;;;5042001;28;19909;-74
2022/04/06 00:54:56;;;;;;;;;;;9.20;99.90;;;;;;5041028;28;19921;-75
2022/04/06 00:57:21;;;;;;;;;;;9.20;99.90;;;;;;5041709;28;19996;-74
2022/04/06 00:59:47;;;;;;;;;;;9.20;99.90;;;;;;5040855;28;19923;-74
2022/04/06 01:02:13;;;;;;;;;;;9.20;99.90;;;;;;5039863;28;19924;-74
2022/04/06 01:04:39;;;;;;;;;;;9.30;99.90;;;;;;5040661;28;19916;-74
2022/04/06 01:07:04;;;;;;;;;;;9.30;99.90;;;;;;5041593;28;19920;-74
2022/04/06 01:09:30;;;;;;;;;;;9.30;99.90;;;;;;5040460;28;20510;-74
2022/04/06 01:11:56;;;;;;;;;;;9.30;99.90;;;;;;5041553;28;19909;-74
2022/04/06 01:14:21;;;;;;;;;;;9.30;99.90;;;;;;5040411;28;19917;-74
2022/04/06 01:17:00;;;;;;;;;;;9.30;99.90;;;;;;5041666;28;19999;-74
2022/04/06 01:19:29;;;;;;;;;;;9.30;99.90;;;;;;5038212;28;20278;-74
2022/04/06 01:21:54;;;;;;;;;;;9.30;99.90;;;;;;5039918;28;20361;-74
2022/04/06 01:24:20;;;;;;;;;;;9.30;99.90;;;;;;5039923;28;19920;-74
2022/04/06 01:26:45;;;;;;;;;;;9.30;99.90;;;;;;5041006;28;19912;-74
2022/04/06 01:29:11;;;;;;;;;;;9.20;99.90;;;;;;5039294;28;19987;-74
2022/04/06 01:31:36;;;;;;;;;;;9.20;99.90;;;;;;5041379;28;19913;-74
2022/04/06 01:34:02;;;;;;;;;;;9.20;99.90;;;;;;5040066;28;19913;-74
2022/04/06 01:36:27;;;;;;;;;;;9.20;99.90;;;;;;5039297;28;20322;-74
2022/04/06 01:38:52;;;;;;;;;;;9.10;99.90;;;;;;5040349;28;19917;-74
2022/04/06 01:41:18;;;;;;;;;;;9.10;99.90;;;;;;5040918;28;19994;-74
2022/04/06 01:43:43;;;;;;;;;;;9.10;99.90;;;;;;5040347;28;20431;-74
2022/04/06 01:46:09;;;;;;;;;;;9.10;99.90;;;;;;5041252;28;19909;-74
2022/04/06 01:52:11;;;;;;;;;;;9.10;99.90;;;;;;5038838;28;20012;-74
2022/04/06 01:54:04;;;;;;;;;;;9.10;99.90;;;;;;5037990;28;19919;-74
2022/04/06 01:56:29;;;;;;;;;;;9.10;99.90;;;;;;5039643;28;20300;-73
2022/04/06 01:58:55;;;;;;;;;;;9.10;99.90;;;;;;5040870;28;20377;-74
2022/04/06 02:01:20;;;;;;;;;;;9.10;99.90;;;;;;5039867;28;20383;-74
2022/04/06 02:03:45;;;;;;;;;;;9.10;99.90;;;;;;5039462;28;19948;-74
2022/04/06 02:06:11;;;;;;;;;;;9.10;99.90;;;;;;5040774;28;20316;-74
2022/04/06 02:08:37;;;;;;;;;;;9.10;99.90;;;;;;5038556;28;20382;-74
2022/04/06 02:11:02;;;;;;;;;;;9.10;99.90;;;;;;5037506;28;19916;-74
2022/04/06 02:13:27;;;;;;;;;;;9.10;99.90;;;;;;5038945;28;19921;-74
2022/04/06 02:15:53;;;;;;;;;;;9.10;99.90;;;;;;5039988;28;19913;-74
2022/04/06 02:18:19;;;;;;;;;;;9.10;99.90;;;;;;5039247;28;19971;-75
2022/04/06 02:20:45;;;;;;;;;;;9.10;99.90;;;;;;5039947;28;19913;-74
2022/04/06 02:23:10;;;;;;;;;;;9.10;99.90;;;;;;5038112;28;19913;-74
2022/04/06 02:25:36;;;;;;;;;;;9.10;99.90;;;;;;5039732;28;19920;-74
2022/04/06 02:28:01;;;;;;;;;;;9.10;99.90;;;;;;5037284;28;20003;-74
2022/04/06 02:30:26;;;;;;;;;;;9.20;99.90;;;;;;5039792;28;19917;-74
2022/04/06 02:32:52;;;;;;;;;;;9.10;99.90;;;;;;5039520;28;19917;-75
2022/04/06 02:35:17;;;;;;;;;;;9.10;99.90;;;;;;5040288;28;19909;-74
2022/04/06 02:37:44;;;;;;;;;;;9.20;99.90;;;;;;5038871;28;19920;-74
2022/04/06 02:40:10;;;;;;;;;;;9.20;99.90;;;;;;5039903;28;19913;-74
2022/04/06 02:42:36;;;;;;;;;;;9.20;99.90;;;;;;5036301;28;19924;-74
2022/04/06 02:45:02;;;;;;;;;;;9.20;99.90;;;;;;5040049;28;19913;-74
2022/04/06 02:47:27;;;;;;;;;;;9.20;99.90;;;;;;5038925;28;19913;-74
2022/04/06 02:49:52;;;;;;;;;;;9.20;99.90;;;;;;5039986;28;20400;-74
2022/04/06 02:52:18;;;;;;;;;;;9.20;99.90;;;;;;5039525;28;20320;-74
2022/04/06 02:54:43;;;;;;;;;;;9.20;99.90;;;;;;5038887;28;19927;-74
2022/04/06 02:57:09;;;;;;;;;;;9.20;99.90;;;;;;5037879;28;20348;-74
2022/04/06 02:59:34;;;;;;;;;;;9.20;99.90;;;;;;5037725;28;20305;-74
2022/04/06 03:02:00;;;;;;;;;;;9.20;99.90;;;;;;5039732;28;19993;-74
2022/04/06 03:04:25;;;;;;;;;;;9.20;99.90;;;;;;5037871;28;20374;-74
2022/04/06 03:06:51;;;;;;;;;;;9.30;99.90;;;;;;5038668;28;19925;-74
2022/04/06 03:09:16;;;;;;;;;;;9.30;99.90;;;;;;5038917;28;19915;-74
2022/04/06 03:11:41;;;;;;;;;;;9.30;99.90;;;;;;5038160;28;19917;-74
2022/04/06 03:14:08;;;;;;;;;;;9.30;99.90;;;;;;5037907;28;20008;-75
2022/04/06 03:16:33;;;;;;;;;;;9.30;99.90;;;;;;5037700;28;20339;-74
2022/04/06 03:18:59;;;;;;;;;;;9.30;99.90;;;;;;5038447;28;19923;-74
2022/04/06 03:21:24;;;;;;;;;;;9.30;99.90;;;;;;5036562;28;19917;-74
2022/04/06 03:23:50;;;;;;;;;;;9.30;99.90;;;;;;5038835;28;20012;-74
2022/04/06 03:26:15;;;;;;;;;;;9.30;99.90;;;;;;5038292;28;20384;-74
2022/04/06 03:28:41;;;;;;;;;;;9.20;99.90;;;;;;5038767;28;19956;-74
2022/04/06 03:31:07;;;;;;;;;;;9.30;99.90;;;;;;5035842;28;19921;-74
2022/04/06 03:33:32;;;;;;;;;;;9.30;99.90;;;;;;5038715;28;19912;-74
2022/04/06 03:35:58;;;;;;;;;;;9.40;99.90;;;;;;5037289;28;20382;-75
2022/04/06 03:38:23;;;;;;;;;;;9.40;99.90;;;;;;5039283;28;19917;-74
2022/04/06 03:40:49;;;;;;;;;;;9.40;99.90;;;;;;5038261;28;19917;-74
2022/04/06 03:43:14;;;;;;;;;;;9.40;99.90;;;;;;5038924;28;19909;-75
2022/04/06 03:45:40;;;;;;;;;;;9.40;99.90;;;;;;5037864;28;20369;-75
2022/04/06 03:48:05;;;;;;;;;;;9.40;99.90;;;;;;5037275;28;19913;-75
2022/04/06 03:50:31;;;;;;;;;;;9.30;99.90;;;;;;5036445;28;20381;-75
2022/04/06 03:52:56;;;;;;;;;;;9.40;99.90;;;;;;5038872;28;19909;-75
2022/04/06 03:55:22;;;;;;;;;;;9.40;99.90;;;;;;5036996;28;19921;-75
2022/04/06 03:57:47;;;;;;;;;;;9.40;99.90;;;;;;5038751;28;19920;-75
2022/04/06 04:00:14;;;;;;;;;;;9.40;99.90;;;;;;5037070;28;19920;-75
2022/04/06 04:02:40;;;;;;;;;;;9.40;99.90;;;;;;5038394;28;20384;-75
2022/04/06 04:05:05;;;;;;;;;;;9.40;99.90;;;;;;5029248;28;19928;-74
2022/04/06 04:07:37;;;;;;;;;;;9.40;99.90;;;;;;5034435;28;20396;-75
2022/04/06 04:10:03;;;;;;;;;;;9.50;99.90;;;;;;5034086;28;19917;-75
2022/04/06 04:12:29;;;;;;;;;;;9.40;99.90;;;;;;5040798;28;20280;-75
2022/04/06 04:14:55;;;;;;;;;;;9.50;99.90;;;;;;5042415;28;19909;-75
2022/04/06 04:17:20;;;;;;;;;;;9.50;99.90;;;;;;5041658;28;19909;-75
2022/04/06 04:19:45;;;;;;;;;;;9.50;99.90;;;;;;5041833;28;19912;-75
2022/04/06 04:22:12;;;;;;;;;;;9.50;99.90;;;;;;5035561;28;19918;-75
2022/04/06 04:24:37;;;;;;;;;;;9.50;99.90;;;;;;5039463;28;19913;-75
2022/04/06 04:27:03;;;;;;;;;;;9.50;99.90;;;;;;5037349;28;20250;-75
2022/04/06 04:29:28;;;;;;;;;;;9.50;99.90;;;;;;5030522;28;20245;-73
2022/04/06 04:31:54;;;;;;;;;;;9.50;99.90;;;;;;5036240;28;19994;-73
2022/04/06 04:34:19;;;;;;;;;;;9.50;99.90;;;;;;5037012;28;19928;-73
2022/04/06 04:36:45;;;;;;;;;;;9.50;99.90;;;;;;5040671;28;19928;-73
2022/04/06 04:39:10;;;;;;;;;;;9.50;99.90;;;;;;5039766;28;20381;-73
2022/04/06 04:41:36;;;;;;;;;;;9.60;99.90;;;;;;5038433;28;20388;-73
2022/04/06 04:44:01;;;;;;;;;;;9.50;99.90;;;;;;5039838;28;20388;-73
2022/04/06 04:46:27;;;;;;;;;;;9.60;99.90;;;;;;5039031;28;20000;-73
2022/04/06 04:48:52;;;;;;;;;;;9.60;99.90;;;;;;5038375;28;19917;-72
2022/04/06 04:51:18;;;;;;;;;;;9.60;99.90;;;;;;5037286;28;19995;-72
2022/04/06 04:53:43;;;;;;;;;;;9.60;99.90;;;;;;5033490;28;19947;-71
2022/04/06 04:56:08;;;;;;;;;;;9.60;99.90;;;;;;5034257;28;20334;-73
2022/04/06 04:58:34;;;;;;;;;;;9.60;99.90;;;;;;5030661;28;19968;-73
2022/04/06 05:00:59;;;;;;;;;;;9.60;99.90;;;;;;5035132;28;19913;-74
2022/04/06 05:03:25;;;;;;;;;;;9.60;99.90;;;;;;5038705;28;19913;-74
2022/04/06 05:05:53;;;;;;;;;;;9.60;99.90;;;;;;5038702;28;19921;-73
2022/04/06 05:08:19;;;;;;;;;;;9.60;99.90;;;;;;5039015;28;19937;-74
2022/04/06 05:10:44;;;;;;;;;;;9.50;99.90;;;;;;5039708;28;19977;-73
2022/04/06 05:13:10;;;;;;;;;;;9.60;99.90;;;;;;5035069;28;19921;-74
2022/04/06 05:15:36;;;;;;;;;;;9.60;99.90;;;;;;5036886;28;19917;-73
2022/04/06 05:18:01;;;;;;;;;;;9.60;99.90;;;;;;5038669;28;19917;-73
2022/04/06 05:20:27;;;;;;;;;;;9.60;99.90;;;;;;5037390;28;19979;-73
2022/04/06 05:22:53;;;;;;;;;;;9.60;99.90;;;;;;5037926;28;20343;-73
2022/04/06 05:25:18;;;;;;;;;;;9.70;99.90;;;;;;5037479;28;20441;-73
2022/04/06 05:27:43;;;;;;;;;;;9.60;99.90;;;;;;5037997;28;20439;-73
2022/04/06 05:30:10;;;;;;;;;;;9.60;99.90;;;;;;5035582;28;19917;-69
2022/04/06 05:32:35;;;;;;;;;;;9.60;99.90;;;;;;5031889;28;19975;-69
2022/04/06 05:35:01;;;;;;;;;;;9.70;99.90;;;;;;5037431;28;19964;-71
2022/04/06 05:37:26;;;;;;;;;;;9.70;99.90;;;;;;5038263;28;19940;-70
2022/04/06 05:39:52;;;;;;;;;;;9.70;99.90;;;;;;5039936;28;19917;-70
2022/04/06 05:42:17;;;;;;;;;;;9.70;99.90;;;;;;5039358;28;19917;-70
2022/04/06 05:44:43;;;;;;;;;;;9.70;99.90;;;;;;5040290;28;19913;-70
2022/04/06 05:47:08;;;;;;;;;;;9.70;99.90;;;;;;5038054;28;19917;-70
2022/04/06 05:49:33;;;;;;;;;;;9.70;99.90;;;;;;5038336;28;20431;-70
2022/04/06 05:51:59;;;;;;;;;;;9.80;99.90;;;;;;5039996;28;20488;-70
2022/04/06 05:54:24;;;;;;;;;;;9.80;99.90;;;;;;5037578;28;19921;-70
2022/04/06 05:56:50;;;;;;;;;;;9.80;99.90;;;;;;5040033;28;19968;-70
2022/04/06 05:59:15;;;;;;;;;;;9.80;99.90;;;;;;5038274;28;19917;-71
2022/04/06 06:01:40;;;;;;;;;;;9.80;99.90;;;;;;5040032;28;19967;-71
2022/04/06 06:04:06;;;;;;;;;;;9.80;99.90;;;;;;5039368;28;19971;-70
2022/04/06 06:06:32;;;;;;;;;;;9.80;99.90;;;;;;5038017;28;19917;-70
2022/04/06 06:08:58;;;;;;;;;;;9.80;99.90;;;;;;5038777;28;19914;-70
2022/04/06 06:11:23;;;;;;;;;;;9.80;99.90;;;;;;5039976;28;19920;-70
2022/04/06 06:13:49;;;;;;;;;;;9.80;99.90;;;;;;5039570;28;20003;-70
2022/04/06 06:16:14;;;;;;;;;;;9.90;99.90;;;;;;5034657;28;19917;-70
2022/04/06 06:18:39;;;;;;;;;;;9.80;99.90;;;;;;5035484;28;20015;-71
2022/04/06 06:21:05;;;;;;;;;;;9.80;99.90;;;;;;5031778;28;19913;-70
2022/04/06 06:23:31;;;;;;;;;;;9.80;99.90;;;;;;5020816;28;19932;-68
2022/04/06 06:25:56;;;;;;;;;;;9.90;99.90;;;;;;5018529;28;19921;-68
2022/04/06 06:28:23;;;;;;;;;;;9.90;99.90;;;;;;5033099;28;19914;-68
2022/04/06 06:30:49;;;;;;;;;;;9.90;99.90;;;;;;5034277;28;19922;-69
2022/04/06 06:33:16;;;;;;;;;;;9.90;99.90;;;;;;5038099;28;19931;-71
2022/04/06 06:35:42;;;;;;;;;;;9.90;99.90;;;;;;5036611;28;19913;-72
2022/04/06 06:38:07;;;;;;;;;;;9.90;99.90;;;;;;5039625;28;20001;-69
2022/04/06 06:40:33;;;;;;;;;;;10.00;99.90;;;;;;5037572;28;19924;-74
2022/04/06 06:42:58;;;;;;;;;;;10.00;99.90;;;;;;5036228;28;19921;-71
2022/04/06 06:45:23;;;;;;;;;;;10.00;99.90;;;;;;5036532;28;20340;-73
2022/04/06 06:47:49;;;;;;;;;;;10.00;99.90;;;;;;5037280;28;20643;-72
2022/04/06 06:50:15;;;;;;;;;;;10.10;99.90;;;;;;5037225;28;19921;-73
2022/04/06 06:52:40;;;;;;;;;;;10.10;99.90;;;;;;5034933;28;19925;-72
2022/04/06 06:55:07;;;;;;;;;;;10.10;99.90;;;;;;5036564;28;19980;-70
2022/04/06 06:57:33;;;;;;;;;;;10.10;99.90;;;;;;5034652;28;19924;-70
2022/04/06 06:59:59;;;;;;;;;;;10.20;99.90;;;;;;5033977;28;19921;-70
2022/04/06 07:02:24;;;;;;;;;;;10.10;99.90;;;;;;5034898;28;19917;-70
2022/04/06 07:04:49;;;;;;;;;;;10.20;99.90;;;;;;5036407;28;19916;-70
2022/04/06 07:07:15;;;;;;;;;;;10.20;99.90;;;;;;5039028;28;20008;-68
2022/04/06 07:09:41;;;;;;;;;;;10.20;99.90;;;;;;5037732;28;19956;-68
2022/04/06 07:12:06;;;;;;;;;;;10.20;99.90;;;;;;5035436;28;19966;-68
2022/04/06 07:14:32;;;;;;;;;;;10.20;99.90;;;;;;5032965;28;20000;-68
2022/04/06 07:16:58;;;;;;;;;;;10.20;99.90;;;;;;5036329;28;20373;-67
2022/04/06 07:19:24;;;;;;;;;;;10.20;99.90;;;;;;5035337;28;20476;-69
2022/04/06 07:21:49;;;;;;;;;;;10.20;99.90;;;;;;5035215;28;20043;-72
2022/04/06 07:24:15;;;;;;;;;;;10.30;99.90;;;;;;5035874;28;19972;-70
2022/04/06 07:26:41;;;;;;;;;;;10.30;99.90;;;;;;5034906;28;20293;-70
2022/04/06 07:29:09;;;;;;;;;;;10.30;99.90;;;;;;5035042;28;19917;-70
2022/04/06 07:31:35;;;;;;;;;;;10.40;99.90;;;;;;5030542;28;20017;-70
2022/04/06 07:34:01;;;;;;;;;;;10.40;99.90;;;;;;5035509;28;19995;-69
2022/04/06 07:36:27;;;;;;;;;;;10.50;99.90;;;;;;5035465;28;20043;-71
2022/04/06 07:38:52;;;;;;;;;;;10.60;99.90;;;;;;5034867;28;19917;-72
2022/04/06 07:41:18;;;;;;;;;;;10.60;99.90;;;;;;5036151;28;19924;-73
2022/04/06 07:43:45;;;;;;;;;;;10.60;99.90;;;;;;5038120;28;19920;-72
2022/04/06 07:46:11;;;;;;;;;;;10.70;99.90;;;;;;5038378;28;19915;-72
2022/04/06 07:48:39;;;;;;;;;;;10.70;99.90;;;;;;5034272;28;19999;-72
2022/04/06 07:51:05;;;;;;;;;;;10.70;99.90;;;;;;5035846;28;20405;-73
2022/04/06 07:53:30;;;;;;;;;;;10.80;99.90;;;;;;5032670;28;19975;-73
2022/04/06 07:55:55;;;;;;;;;;;10.80;99.90;;;;;;5037875;28;20019;-71
2022/04/06 07:58:21;;;;;;;;;;;10.80;99.90;;;;;;5033550;28;19964;-71
2022/04/06 08:00:46;;;;;;;;;;;10.90;99.90;;;;;;5036035;28;19921;-69
2022/04/06 08:03:12;;;;;;;;;;;11.10;99.90;;;;;;5035442;28;20384;-74
2022/04/06 08:05:37;;;;;;;;;;;11.20;99.90;;;;;;5033065;28;20436;-72
2022/04/06 08:08:03;;;;;;;;;;;11.40;99.90;;;;;;5035283;28;19957;-70
2022/04/06 08:10:30;;;;;;;;;;;11.50;99.90;;;;;;5034640;28;20004;-71
2022/04/06 08:12:55;;;;;;;;;;;11.60;99.90;;;;;;5036293;28;20412;-73
2022/04/06 08:15:21;;;;;;;;;;;11.70;99.90;;;;;;5036832;28;19917;-73
2022/04/06 08:17:47;;;;;;;;;;;11.70;99.90;;;;;;5034722;28;20370;-74
2022/04/06 08:20:14;;;;;;;;;;;11.70;99.90;;;;;;5033739;28;19917;-71
2022/04/06 08:22:41;;;;;;;;;;;11.80;99.90;;;;;;5034831;28;19928;-71
2022/04/06 08:25:07;;;;;;;;;;;11.90;99.90;;;;;;5034291;28;19923;-71
2022/04/06 08:27:36;;;;;;;;;;;11.90;99.90;;;;;;5035111;28;19912;-72
2022/04/06 08:30:03;;;;;;;;;;;12.00;99.60;;;;;;5035835;28;19967;-69
2022/04/06 08:32:28;;;;;;;;;;;12.00;99.80;;;;;;5033808;28;20007;-71
2022/04/06 08:34:53;;;;;;;;;;;12.00;99.10;;;;;;5034356;28;20003;-71
2022/04/06 08:37:19;;;;;;;;;;;12.10;99.30;;;;;;5034066;28;19956;-72
2022/04/06 08:39:44;;;;;;;;;;;12.10;99.00;;;;;;5036533;28;19996;-73
2022/04/06 08:42:10;;;;;;;;;;;12.10;98.80;;;;;;5036658;28;19975;-71
2022/04/06 08:44:36;;;;;;;;;;;12.10;99.00;;;;;;5036246;28;19912;-72
2022/04/06 08:47:04;;;;;;;;;;;12.10;99.20;;;;;;5034400;28;19956;-71
2022/04/06 08:49:29;;;;;;;;;;;12.10;99.00;;;;;;5035868;28;20384;-71
2022/04/06 08:51:55;;;;;;;;;;;11.90;98.70;;;;;;5030767;28;19917;-76
2022/04/06 08:54:22;;;;;;;;;;;11.90;99.10;;;;;;5029939;28;20440;-75
2022/04/06 08:56:47;;;;;;;;;;;11.90;99.30;;;;;;5034449;28;19924;-77
2022/04/06 08:59:13;;;;;;;;;;;11.80;99.50;;;;;;5039279;28;19913;-79
2022/04/06 09:01:38;;;;;;;;;;;11.80;99.40;;;;;;5036963;28;19971;-80
2022/04/06 09:04:04;;;;;;;;;;;11.70;99.50;;;;;;5035454;28;20385;-81
2022/04/06 09:06:38;;;;;;;;;;;11.70;99.10;;;;;;5039161;28;20385;-74
2022/04/06 09:09:03;;;;;;;;;;;11.60;98.80;;;;;;5037098;28;19917;-75
2022/04/06 09:11:29;;;;;;;;;;;11.60;98.60;;;;;;5036379;28;20313;-74
2022/04/06 09:14:02;;;;;;;;;;;11.60;98.70;;;;;;5040180;28;19964;-75
2022/04/06 09:16:31;;;;;;;;;;;11.50;98.90;;;;;;5037791;28;19912;-78
2022/04/06 09:19:05;;;;;;;;;;;11.50;98.60;;;;;;5038165;28;20004;-78
2022/04/06 09:21:34;;;;;;;;;;;11.50;98.50;;;;;;5037422;28;20037;-76
2022/04/06 09:23:59;;;;;;;;;;;11.40;98.80;;;;;;5038877;28;19913;-76
2022/04/06 09:26:26;;;;;;;;;;;11.50;98.50;;;;;;5036854;28;19935;-76
2022/04/06 09:28:52;;;;;;;;;;;11.50;98.50;;;;;;5038851;28;19912;-76
2022/04/06 09:31:18;;;;;;;;;;;11.50;98.40;;;;;;5036216;28;19919;-78
2022/04/06 09:33:55;;;;;;;;;;;11.50;98.30;;;;;;5038785;28;19921;-77
2022/04/06 09:36:20;;;;;;;;;;;11.50;98.10;;;;;;5037222;28;20037;-74
2022/04/06 09:38:50;;;;;;;;;;;11.50;98.20;;;;;;5038059;28;20365;-76
2022/04/06 09:41:15;;;;;;;;;;;11.50;97.80;;;;;;5035108;28;19921;-77
2022/04/06 09:43:41;;;;;;;;;;;11.50;98.10;;;;;;5040350;28;19920;-78
2022/04/06 09:49:03;;;;;;;;;;;11.50;98.00;;;;;;5038258;28;20415;-79
2022/04/06 09:51:29;;;;;;;;;;;11.60;97.70;;;;;;5034227;28;19971;-78
2022/04/06 09:53:55;;;;;;;;;;;11.70;97.40;;;;;;5040148;28;19951;-78
2022/04/06 09:56:21;;;;;;;;;;;11.80;97.70;;;;;;5019903;28;19956;-84
2022/04/06 09:58:47;;;;;;;;;;;11.90;97.30;;;;;;5034514;28;20522;-80
2022/04/06 10:01:13;;;;;;;;;;;12.00;97.30;;;;;;5033771;28;19983;-77
2022/04/06 10:03:40;;;;;;;;;;;12.10;96.90;;;;;;5039044;28;20404;-77
2022/04/06 10:06:05;;;;;;;;;;;12.10;96.80;;;;;;5038498;28;19967;-73
2022/04/06 10:08:31;;;;;;;;;;;12.20;96.60;;;;;;5036709;28;19913;-71
2022/04/06 10:10:58;;;;;;;;;;;12.20;96.90;;;;;;5034480;28;19920;-73
2022/04/06 10:13:24;;;;;;;;;;;12.20;96.80;;;;;;5034247;28;20003;-73
2022/04/06 10:15:50;;;;;;;;;;;12.20;96.30;;;;;;5035164;28;19947;-73
2022/04/06 10:18:17;;;;;;;;;;;12.20;96.60;;;;;;5037594;28;19917;-73
2022/04/06 10:20:45;;;;;;;;;;;12.20;96.60;;;;;;5038924;28;20288;-73
2022/04/06 10:23:17;;;;;;;;;;;12.20;96.60;;;;;;5038860;28;19956;-73
2022/04/06 10:25:54;;;;;;;;;;;12.20;96.50;;;;;;5038657;28;20336;-73
2022/04/06 10:28:20;;;;;;;;;;;12.10;96.60;;;;;;5038587;28;20336;-73
2022/04/06 10:31:06;;;;;;;;;;;12.20;96.50;;;;;;5038310;28;20411;-73
2022/04/06 10:33:32;;;;;;;;;;;12.30;96.50;;;;;;5038316;28;19920;-73
2022/04/06 10:36:16;;;;;;;;;;;12.30;96.40;;;;;;5030161;28;20007;-69
2022/04/06 10:39:01;;;;;;;;;;;12.30;96.40;;;;;;5038594;28;19977;-69
2022/04/06 10:41:27;;;;;;;;;;;12.40;96.30;;;;;;5036183;28;19923;-67
2022/04/06 10:43:53;;;;;;;;;;;12.30;96.30;;;;;;5033974;28;20231;-66
2022/04/06 10:46:31;;;;;;;;;;;12.30;96.60;;;;;;5035712;28;20003;-66
2022/04/06 10:48:57;;;;;;;;;;;12.30;96.40;;;;;;5037476;28;19974;-66
2022/04/06 10:51:27;;;;;;;;;;;12.30;96.40;;;;;;5033076;28;19921;-66
2022/04/06 10:53:52;;;;;;;;;;;12.10;96.50;;;;;;5037922;28;19917;-66
2022/04/06 10:56:18;;;;;;;;;;;12.10;96.80;;;;;;5034886;28;19913;-67
2022/04/06 10:58:55;;;;;;;;;;;12.10;96.80;;;;;;5037502;28;19917;-69
2022/04/06 11:01:29;;;;;;;;;;;12.00;97.00;;;;;;5034973;28;19921;-66
2022/04/06 11:03:56;;;;;;;;;;;12.00;97.20;;;;;;5036708;28;19917;-66
2022/04/06 11:06:52;;;;;;;;;;;12.00;97.20;;;;;;5036887;28;19929;-66
2022/04/06 11:12:10;;;;;;;;;;;11.90;97.30;;;;;;5037966;28;19924;-66
2022/04/06 11:14:35;;;;;;;;;;;11.90;97.30;;;;;;5031922;28;19925;-67
2022/04/06 11:17:00;;;;;;;;;;;11.90;97.30;;;;;;5036030;28;20408;-66
2022/04/06 11:19:26;;;;;;;;;;;11.80;97.40;;;;;;5034001;28;20716;-66
2022/04/06 11:21:53;;;;;;;;;;;11.80;97.50;;;;;;5032770;28;19940;-66
2022/04/06 11:24:23;;;;;;;;;;;11.70;97.60;;;;;;5035485;28;20263;-66
2022/04/06 11:26:49;;;;;;;;;;;11.70;97.70;;;;;;5034120;28;19913;-65
2022/04/06 11:29:15;;;;;;;;;;;11.70;98.00;;;;;;5036829;28;19956;-66
2022/04/06 11:31:53;;;;;;;;;;;11.70;97.90;;;;;;5033312;28;19920;-66
2022/04/06 11:34:28;;;;;;;;;;;11.60;98.10;;;;;;5034924;28;19917;-68
2022/04/06 11:36:56;;;;;;;;;;;11.60;98.10;;;;;;5035822;28;19933;-66
2022/04/06 11:39:21;;;;;;;;;;;11.60;98.20;;;;;;5032299;28;19947;-67
2022/04/06 11:41:47;;;;;;;;;;;11.50;98.20;;;;;;5035522;28;19925;-65
2022/04/06 11:44:20;;;;;;;;;;;11.50;98.20;;;;;;5033942;28;19916;-65
2022/04/06 11:46:46;;;;;;;;;;;11.40;98.40;;;;;;5036542;28;20016;-65
2022/04/06 11:49:11;;;;;;;;;;;11.40;98.50;;;;;;5034074;28;19992;-65
2022/04/06 11:51:37;;;;;;;;;;;11.40;98.40;;;;;;5034276;28;19917;-66
2022/04/06 11:54:03;;;;;;;;;;;11.40;98.60;;;;;;5038362;28;19912;-66
2022/04/06 11:56:28;;;;;;;;;;;11.40;98.60;;;;;;5029222;28;19917;-66
2022/04/06 11:58:57;;;;;;;;;;;11.50;98.60;;;;;;5036829;28;19921;-68
2022/04/06 12:01:28;;;;;;;;;;;11.50;98.50;;;;;;5033529;28;20011;-67
2022/04/06 12:03:58;;;;;;;;;;;11.50;98.50;;;;;;5036192;28;19917;-66
2022/04/06 12:06:30;;;;;;;;;;;11.50;98.60;;;;;;5035355;28;20432;-68
2022/04/06 12:08:55;;;;;;;;;;;11.50;98.30;;;;;;5038588;28;19992;-70
2022/04/06 12:11:21;;;;;;;;;;;11.50;98.40;;;;;;5032356;28;20676;-69
2022/04/06 12:13:47;;;;;;;;;;;11.50;98.40;;;;;;5036653;28;20282;-68
2022/04/06 12:16:13;;;;;;;;;;;11.60;98.30;;;;;;5035620;28;20281;-68
2022/04/06 12:18:39;;;;;;;;;;;11.70;98.20;;;;;;5037692;28;19913;-68
2022/04/06 12:21:17;;;;;;;;;;;11.70;97.90;;;;;;5036796;28;19909;-68
2022/04/06 12:23:47;;;;;;;;;;;11.70;97.90;;;;;;5034206;28;19929;-68
2022/04/06 12:26:12;;;;;;;;;;;11.80;97.70;;;;;;5035791;28;20293;-68
2022/04/06 12:28:38;;;;;;;;;;;11.80;97.80;;;;;;5034108;28;20435;-70
2022/04/06 12:31:05;;;;;;;;;;;11.90;97.90;;;;;;5032070;28;20435;-66
2022/04/06 12:33:38;;;;;;;;;;;12.00;97.70;;;;;;5040050;28;19910;-69
2022/04/06 12:36:04;;;;;;;;;;;12.00;97.50;;;;;;5039744;28;20003;-69
2022/04/06 12:38:30;;;;;;;;;;;12.00;97.40;;;;;;5035425;28;19921;-68
2022/04/06 12:41:02;;;;;;;;;;;12.10;97.60;;;;;;5040617;28;19909;-67
2022/04/06 12:43:29;;;;;;;;;;;12.10;97.30;;;;;;5040274;28;20405;-67
2022/04/06 12:45:55;;;;;;;;;;;12.20;97.20;;;;;;5037397;28;20000;-67
2022/04/06 12:48:20;;;;;;;;;;;12.30;96.80;;;;;;5039196;28;20000;-68
2022/04/06 12:50:46;;;;;;;;;;;12.30;96.80;;;;;;5039101;28;20404;-69
2022/04/06 12:53:12;;;;;;;;;;;12.50;96.50;;;;;;5036242;28;19909;-68
2022/04/06 12:55:38;;;;;;;;;;;12.60;96.10;;;;;;5037700;28;19965;-68
2022/04/06 12:58:14;;;;;;;;;;;12.70;95.80;;;;;;5041377;28;19913;-68
2022/04/06 13:00:39;;;;;;;;;;;12.80;95.80;;;;;;5030398;28;19920;-68
2022/04/06 13:03:05;;;;;;;;;;;12.80;95.30;;;;;;5036352;28;19926;-68
2022/04/06 13:05:31;;;;;;;;;;;12.90;95.30;;;;;;5038778;28;19918;-67
2022/04/06 13:07:56;;;;;;;;;;;12.90;95.00;;;;;;5041767;28;19916;-68
2022/04/06 13:10:29;;;;;;;;;;;13.00;94.90;;;;;;5036923;28;19929;-70
2022/04/06 13:12:55;;;;;;;;;;;13.00;94.70;;;;;;5039848;28;19943;-70
2022/04/06 13:15:21;;;;;;;;;;;13.10;95.00;;;;;;5038110;28;19921;-70
2022/04/06 13:17:47;;;;;;;;;;;13.00;94.40;;;;;;5041030;28;19932;-70
2022/04/06 13:20:14;;;;;;;;;;;13.00;94.20;;;;;;5037060;28;19920;-65
2022/04/06 13:22:40;;;;;;;;;;;13.00;94.50;;;;;;5034165;28;20261;-65
2022/04/06 13:25:06;;;;;;;;;;;13.00;94.40;;;;;;5037909;28;20428;-65
2022/04/06 13:27:31;;;;;;;;;;;13.10;94.40;;;;;;5038033;28;19913;-65
2022/04/06 13:30:00;;;;;;;;;;;13.10;94.60;;;;;;5038604;28;19932;-64
2022/04/06 13:32:26;;;;;;;;;;;13.10;94.50;;;;;;5037260;28;19967;-63
2022/04/06 13:34:51;;;;;;;;;;;13.10;94.70;;;;;;5033663;28;19959;-63
2022/04/06 13:37:18;;;;;;;;;;;13.10;94.40;;;;;;5037743;28;19921;-63
2022/04/06 13:39:44;;;;;;;;;;;13.20;94.70;;;;;;5033171;28;19913;-64
2022/04/06 13:42:10;;;;;;;;;;;13.10;94.20;;;;;;5038643;28;19966;-65
2022/04/06 13:44:35;;;;;;;;;;;13.10;94.30;;;;;;5036567;28;20304;-65
2022/04/06 13:47:03;;;;;;;;;;;13.20;94.40;;;;;;5036894;28;19920;-66
2022/04/06 13:49:28;;;;;;;;;;;13.20;94.50;;;;;;5036504;28;20042;-65
2022/04/06 13:51:55;;;;;;;;;;;13.30;94.30;;;;;;5036180;28;20008;-66
2022/04/06 13:54:21;;;;;;;;;;;13.30;94.00;;;;;;5036517;28;19923;-66
2022/04/06 13:56:46;;;;;;;;;;;13.20;94.10;;;;;;5037425;28;19917;-65
2022/04/06 13:59:12;;;;;;;;;;;13.30;94.10;;;;;;5038074;28;19913;-64
2022/04/06 14:01:38;;;;;;;;;;;13.20;94.30;;;;;;5039840;28;19959;-65
2022/04/06 14:04:04;;;;;;;;;;;13.20;94.50;;;;;;5037047;28;19956;-66
2022/04/06 14:06:29;;;;;;;;;;;13.20;94.40;;;;;;5039649;28;20592;-66
2022/04/06 14:08:55;;;;;;;;;;;13.20;94.60;;;;;;5035436;28;20337;-66
2022/04/06 14:11:20;;;;;;;;;;;13.10;94.60;;;;;;5037377;28;20065;-65
2022/04/06 14:13:46;;;;;;;;;;;13.10;94.50;;;;;;5036225;28;19928;-65
2022/04/06 14:16:11;;;;;;;;;;;13.00;94.50;;;;;;5034574;28;19967;-67
2022/04/06 14:18:37;;;;;;;;;;;12.90;94.70;;;;;;5036687;28;19995;-66
2022/04/06 14:21:02;;;;;;;;;;;12.80;94.80;;;;;;5037189;28;20328;-66
2022/04/06 14:23:28;;;;;;;;;;;12.70;95.10;;;;;;5037993;28;20284;-66
2022/04/06 14:25:53;;;;;;;;;;;12.60;95.20;;;;;;5035573;28;19913;-65
2022/04/06 14:28:19;;;;;;;;;;;12.60;95.40;;;;;;5033757;28;20281;-65